sensor_id;sensor_type;location;lat;lon;timestamp;P1;durP1;ratioP1;P2;durP2;ratioP2
27670;SDS011;15077;49.704;9.908;2022-09-09T00:09:47;1.13;;;0.40;;
27670;SDS011;15077;49.704;9.908;2022-09-09T00:15:34;0.73;;;0.45;;
27670;SDS011;15077;49.704;9.908;2022-09-09T00:30:19;1.50;;;0.50;;
27670;SDS011;15077;49.704;9.908;2022-09-09T00:32:58;0.55;;;0.30;;
27670;SDS011;15077;49.704;9.908;2022-09-09T00:35:37;1.63;;;0.65;;
27670;SDS011;15077;49.704;9.908;2022-09-09T00:38:16;1.90;;;0.60;;
27670;SDS011;15077;49.704;9.908;2022-09-09T00:43:55;0.68;;;0.30;;
27670;SDS011;15077;49.704;9.908;2022-09-09T00:46:48;2.00;;;0.40;;
27670;SDS011;15077;49.704;9.908;2022-09-09T00:51:59;1.48;;;0.60;;
27670;SDS011;15077;49.704;9.908;2022-09-09T00:57:25;0.95;;;0.63;;
27670;SDS011;15077;49.704;9.908;2022-09-09T01:14:56;1.70;;;0.45;;
27670;SDS011;15077;49.704;9.908;2022-09-09T01:20:18;0.87;;;0.40;;
27670;SDS011;15077;49.704;9.908;2022-09-09T01:28:30;2.60;;;0.82;;
27670;SDS011;15077;49.704;9.908;2022-09-09T01:31:00;1.80;;;0.60;;
27670;SDS011;15077;49.704;9.908;2022-09-09T01:33:29;1.95;;;0.45;;
27670;SDS011;15077;49.704;9.908;2022-09-09T01:38:37;3.38;;;0.68;;
27670;SDS011;15077;49.704;9.908;2022-09-09T01:41:03;1.08;;;0.43;;
27670;SDS011;15077;49.704;9.908;2022-09-09T01:43:30;1.85;;;0.50;;
27670;SDS011;15077;49.704;9.908;2022-09-09T01:45:58;1.10;;;0.60;;
27670;SDS011;15077;49.704;9.908;2022-09-09T01:48:27;1.65;;;0.50;;
27670;SDS011;15077;49.704;9.908;2022-09-09T01:50:54;1.48;;;0.50;;
27670;SDS011;15077;49.704;9.908;2022-09-09T01:53:21;1.40;;;0.47;;
27670;SDS011;15077;49.704;9.908;2022-09-09T01:56:31;0.88;;;0.55;;
27670;SDS011;15077;49.704;9.908;2022-09-09T01:59:45;1.40;;;0.50;;
27670;SDS011;15077;49.704;9.908;2022-09-09T02:02:18;1.00;;;0.40;;
27670;SDS011;15077;49.704;9.908;2022-09-09T02:08:08;2.97;;;0.82;;
27670;SDS011;15077;49.704;9.908;2022-09-09T02:11:22;3.05;;;0.45;;
27670;SDS011;15077;49.704;9.908;2022-09-09T02:13:37;1.25;;;0.43;;
27670;SDS011;15077;49.704;9.908;2022-09-09T02:18:54;1.98;;;0.70;;
27670;SDS011;15077;49.704;9.908;2022-09-09T02:21:31;2.05;;;0.63;;
27670;SDS011;15077;49.704;9.908;2022-09-09T02:24:03;0.82;;;0.30;;
27670;SDS011;15077;49.704;9.908;2022-09-09T02:26:35;0.50;;;0.20;;
27670;SDS011;15077;49.704;9.908;2022-09-09T02:31:52;1.58;;;0.30;;
27670;SDS011;15077;49.704;9.908;2022-09-09T02:34:23;0.88;;;0.30;;
27670;SDS011;15077;49.704;9.908;2022-09-09T02:36:52;0.73;;;0.40;;
27670;SDS011;15077;49.704;9.908;2022-09-09T02:39:22;0.90;;;0.73;;
27670;SDS011;15077;49.704;9.908;2022-09-09T02:41:47;2.30;;;0.60;;
27670;SDS011;15077;49.704;9.908;2022-09-09T02:44:15;1.10;;;0.40;;
27670;SDS011;15077;49.704;9.908;2022-09-09T02:46:51;0.80;;;0.47;;
27670;SDS011;15077;49.704;9.908;2022-09-09T02:52:31;1.33;;;0.40;;
27670;SDS011;15077;49.704;9.908;2022-09-09T02:55:52;0.75;;;0.40;;
27670;SDS011;15077;49.704;9.908;2022-09-09T02:57:55;0.38;;;0.30;;
27670;SDS011;15077;49.704;9.908;2022-09-09T03:00:23;0.82;;;0.40;;
27670;SDS011;15077;49.704;9.908;2022-09-09T03:02:51;3.17;;;0.73;;
27670;SDS011;15077;49.704;9.908;2022-09-09T03:05:18;0.55;;;0.40;;
27670;SDS011;15077;49.704;9.908;2022-09-09T03:07:44;0.63;;;0.32;;
27670;SDS011;15077;49.704;9.908;2022-09-09T03:10:10;1.95;;;0.80;;
27670;SDS011;15077;49.704;9.908;2022-09-09T03:12:35;1.90;;;0.60;;
27670;SDS011;15077;49.704;9.908;2022-09-09T03:15:01;1.67;;;0.57;;
27670;SDS011;15077;49.704;9.908;2022-09-09T03:17:27;2.35;;;0.80;;
27670;SDS011;15077;49.704;9.908;2022-09-09T03:19:53;2.33;;;0.80;;
27670;SDS011;15077;49.704;9.908;2022-09-09T03:22:20;2.17;;;0.60;;
27670;SDS011;15077;49.704;9.908;2022-09-09T03:24:46;2.03;;;0.60;;
27670;SDS011;15077;49.704;9.908;2022-09-09T03:27:12;2.03;;;0.80;;
27670;SDS011;15077;49.704;9.908;2022-09-09T03:29:39;2.63;;;1.02;;
27670;SDS011;15077;49.704;9.908;2022-09-09T03:32:05;1.13;;;0.50;;
27670;SDS011;15077;49.704;9.908;2022-09-09T03:34:31;1.02;;;0.50;;
27670;SDS011;15077;49.704;9.908;2022-09-09T03:36:57;1.40;;;0.70;;
27670;SDS011;15077;49.704;9.908;2022-09-09T03:39:23;2.22;;;0.70;;
27670;SDS011;15077;49.704;9.908;2022-09-09T03:41:48;1.55;;;0.45;;
27670;SDS011;15077;49.704;9.908;2022-09-09T03:44:14;1.27;;;0.50;;
27670;SDS011;15077;49.704;9.908;2022-09-09T03:46:40;1.30;;;0.60;;
27670;SDS011;15077;49.704;9.908;2022-09-09T03:49:06;1.52;;;0.40;;
27670;SDS011;15077;49.704;9.908;2022-09-09T03:51:31;4.47;;;0.70;;
27670;SDS011;15077;49.704;9.908;2022-09-09T03:54:01;1.50;;;0.50;;
27670;SDS011;15077;49.704;9.908;2022-09-09T03:56:30;1.00;;;0.40;;
27670;SDS011;15077;49.704;9.908;2022-09-09T03:58:56;1.25;;;0.45;;
27670;SDS011;15077;49.704;9.908;2022-09-09T04:01:22;0.38;;;0.20;;
27670;SDS011;15077;49.704;9.908;2022-09-09T04:03:48;1.55;;;0.60;;
27670;SDS011;15077;49.704;9.908;2022-09-09T04:06:15;1.08;;;0.30;;
27670;SDS011;15077;49.704;9.908;2022-09-09T04:08:42;1.63;;;0.50;;
27670;SDS011;15077;49.704;9.908;2022-09-09T04:11:08;1.65;;;0.52;;
27670;SDS011;15077;49.704;9.908;2022-09-09T04:13:35;3.03;;;0.57;;
27670;SDS011;15077;49.704;9.908;2022-09-09T04:16:04;0.88;;;0.68;;
27670;SDS011;15077;49.704;9.908;2022-09-09T04:18:30;0.95;;;0.50;;
27670;SDS011;15077;49.704;9.908;2022-09-09T04:20:59;1.67;;;0.60;;
27670;SDS011;15077;49.704;9.908;2022-09-09T04:23:26;1.42;;;0.80;;
27670;SDS011;15077;49.704;9.908;2022-09-09T04:25:57;2.17;;;0.60;;
27670;SDS011;15077;49.704;9.908;2022-09-09T04:28:26;1.90;;;0.57;;
27670;SDS011;15077;49.704;9.908;2022-09-09T04:30:56;2.40;;;0.90;;
27670;SDS011;15077;49.704;9.908;2022-09-09T04:33:25;1.40;;;0.60;;
27670;SDS011;15077;49.704;9.908;2022-09-09T04:35:52;1.90;;;0.80;;
27670;SDS011;15077;49.704;9.908;2022-09-09T04:38:19;1.63;;;0.75;;
27670;SDS011;15077;49.704;9.908;2022-09-09T04:40:48;2.58;;;0.82;;
27670;SDS011;15077;49.704;9.908;2022-09-09T04:43:17;1.47;;;0.70;;
27670;SDS011;15077;49.704;9.908;2022-09-09T04:45:46;2.05;;;0.50;;
27670;SDS011;15077;49.704;9.908;2022-09-09T04:48:15;1.95;;;0.52;;
27670;SDS011;15077;49.704;9.908;2022-09-09T04:50:56;1.73;;;0.50;;
27670;SDS011;15077;49.704;9.908;2022-09-09T04:53:30;2.95;;;0.50;;
27670;SDS011;15077;49.704;9.908;2022-09-09T04:56:04;2.10;;;0.60;;
27670;SDS011;15077;49.704;9.908;2022-09-09T04:58:36;1.55;;;0.57;;
27670;SDS011;15077;49.704;9.908;2022-09-09T05:01:13;1.38;;;0.70;;
27670;SDS011;15077;49.704;9.908;2022-09-09T05:03:47;1.15;;;0.50;;
27670;SDS011;15077;49.704;9.908;2022-09-09T05:06:16;1.38;;;0.65;;
27670;SDS011;15077;49.704;9.908;2022-09-09T05:08:45;0.98;;;0.40;;
27670;SDS011;15077;49.704;9.908;2022-09-09T05:11:21;1.42;;;0.65;;
27670;SDS011;15077;49.704;9.908;2022-09-09T05:13:53;1.05;;;0.40;;
27670;SDS011;15077;49.704;9.908;2022-09-09T05:16:19;2.00;;;0.40;;
27670;SDS011;15077;49.704;9.908;2022-09-09T05:18:47;1.40;;;0.50;;
27670;SDS011;15077;49.704;9.908;2022-09-09T05:21:16;1.90;;;0.60;;
27670;SDS011;15077;49.704;9.908;2022-09-09T05:23:44;1.40;;;0.75;;
27670;SDS011;15077;49.704;9.908;2022-09-09T05:26:17;2.78;;;1.00;;
27670;SDS011;15077;49.704;9.908;2022-09-09T05:28:45;2.35;;;1.10;;
27670;SDS011;15077;49.704;9.908;2022-09-09T05:31:13;2.85;;;1.08;;
27670;SDS011;15077;49.704;9.908;2022-09-09T05:33:42;2.08;;;0.68;;
27670;SDS011;15077;49.704;9.908;2022-09-09T05:36:14;2.00;;;0.88;;
27670;SDS011;15077;49.704;9.908;2022-09-09T05:38:44;2.40;;;0.70;;
27670;SDS011;15077;49.704;9.908;2022-09-09T05:43:42;3.03;;;0.90;;
27670;SDS011;15077;49.704;9.908;2022-09-09T05:46:13;3.55;;;1.13;;
27670;SDS011;15077;49.704;9.908;2022-09-09T05:48:44;1.10;;;0.73;;
27670;SDS011;15077;49.704;9.908;2022-09-09T05:51:13;2.45;;;0.80;;
27670;SDS011;15077;49.704;9.908;2022-09-09T05:53:42;3.22;;;0.75;;
27670;SDS011;15077;49.704;9.908;2022-09-09T05:56:11;1.52;;;0.50;;
27670;SDS011;15077;49.704;9.908;2022-09-09T05:58:43;1.48;;;0.70;;
27670;SDS011;15077;49.704;9.908;2022-09-09T06:03:57;2.22;;;0.45;;
27670;SDS011;15077;49.704;9.908;2022-09-09T06:06:24;2.85;;;0.60;;
27670;SDS011;15077;49.704;9.908;2022-09-09T06:08:55;1.43;;;0.90;;
27670;SDS011;15077;49.704;9.908;2022-09-09T06:11:24;1.70;;;0.70;;
27670;SDS011;15077;49.704;9.908;2022-09-09T06:13:52;1.00;;;0.57;;
27670;SDS011;15077;49.704;9.908;2022-09-09T06:16:21;1.27;;;0.60;;
27670;SDS011;15077;49.704;9.908;2022-09-09T06:18:49;1.48;;;0.52;;
27670;SDS011;15077;49.704;9.908;2022-09-09T06:21:16;2.47;;;0.65;;
27670;SDS011;15077;49.704;9.908;2022-09-09T06:23:45;1.90;;;0.75;;
27670;SDS011;15077;49.704;9.908;2022-09-09T06:28:47;2.45;;;0.60;;
27670;SDS011;15077;49.704;9.908;2022-09-09T06:31:16;2.28;;;0.57;;
27670;SDS011;15077;49.704;9.908;2022-09-09T06:36:18;2.03;;;0.40;;
27670;SDS011;15077;49.704;9.908;2022-09-09T06:38:47;1.27;;;0.40;;
27670;SDS011;15077;49.704;9.908;2022-09-09T06:41:15;3.08;;;0.52;;
27670;SDS011;15077;49.704;9.908;2022-09-09T06:43:43;1.88;;;0.77;;
27670;SDS011;15077;49.704;9.908;2022-09-09T06:46:14;1.35;;;0.40;;
27670;SDS011;15077;49.704;9.908;2022-09-09T06:48:42;1.10;;;0.50;;
27670;SDS011;15077;49.704;9.908;2022-09-09T06:51:12;0.95;;;0.40;;
27670;SDS011;15077;49.704;9.908;2022-09-09T06:53:42;1.35;;;0.47;;
27670;SDS011;15077;49.704;9.908;2022-09-09T06:58:36;0.65;;;0.25;;
27670;SDS011;15077;49.704;9.908;2022-09-09T07:01:08;1.20;;;0.43;;
27670;SDS011;15077;49.704;9.908;2022-09-09T07:03:35;1.95;;;0.70;;
27670;SDS011;15077;49.704;9.908;2022-09-09T07:08:34;2.20;;;0.50;;
27670;SDS011;15077;49.704;9.908;2022-09-09T07:11:04;1.02;;;0.50;;
27670;SDS011;15077;49.704;9.908;2022-09-09T07:13:37;1.58;;;1.00;;
27670;SDS011;15077;49.704;9.908;2022-09-09T07:16:03;1.35;;;0.50;;
27670;SDS011;15077;49.704;9.908;2022-09-09T07:18:34;0.85;;;0.60;;
27670;SDS011;15077;49.704;9.908;2022-09-09T07:21:01;3.38;;;0.50;;
27670;SDS011;15077;49.704;9.908;2022-09-09T07:23:29;1.40;;;0.75;;
27670;SDS011;15077;49.704;9.908;2022-09-09T07:25:56;2.78;;;0.70;;
27670;SDS011;15077;49.704;9.908;2022-09-09T07:28:23;2.47;;;0.73;;
27670;SDS011;15077;49.704;9.908;2022-09-09T07:30:58;1.83;;;0.40;;
27670;SDS011;15077;49.704;9.908;2022-09-09T07:33:30;2.08;;;0.55;;
27670;SDS011;15077;49.704;9.908;2022-09-09T07:36:06;1.23;;;0.50;;
27670;SDS011;15077;49.704;9.908;2022-09-09T07:38:42;0.57;;;0.35;;
27670;SDS011;15077;49.704;9.908;2022-09-09T07:41:16;1.98;;;0.43;;
27670;SDS011;15077;49.704;9.908;2022-09-09T07:43:48;1.45;;;0.60;;
27670;SDS011;15077;49.704;9.908;2022-09-09T07:46:15;2.72;;;0.73;;
27670;SDS011;15077;49.704;9.908;2022-09-09T07:48:47;1.55;;;0.45;;
27670;SDS011;15077;49.704;9.908;2022-09-09T07:51:21;1.13;;;0.55;;
27670;SDS011;15077;49.704;9.908;2022-09-09T07:53:55;1.85;;;0.47;;
27670;SDS011;15077;49.704;9.908;2022-09-09T07:56:28;1.90;;;0.75;;
27670;SDS011;15077;49.704;9.908;2022-09-09T07:58:56;1.58;;;0.50;;
27670;SDS011;15077;49.704;9.908;2022-09-09T08:01:36;0.93;;;0.50;;
27670;SDS011;15077;49.704;9.908;2022-09-09T08:04:11;2.90;;;0.82;;
27670;SDS011;15077;49.704;9.908;2022-09-09T08:06:44;3.88;;;0.60;;
27670;SDS011;15077;49.704;9.908;2022-09-09T08:09:15;2.15;;;0.55;;
27670;SDS011;15077;49.704;9.908;2022-09-09T08:11:41;2.13;;;0.50;;
27670;SDS011;15077;49.704;9.908;2022-09-09T08:14:08;1.17;;;0.55;;
27670;SDS011;15077;49.704;9.908;2022-09-09T08:16:40;3.17;;;0.90;;
27670;SDS011;15077;49.704;9.908;2022-09-09T08:19:09;1.45;;;0.35;;
27670;SDS011;15077;49.704;9.908;2022-09-09T08:21:36;2.40;;;0.45;;
27670;SDS011;15077;49.704;9.908;2022-09-09T08:24:06;1.20;;;0.40;;
27670;SDS011;15077;49.704;9.908;2022-09-09T08:26:34;2.38;;;0.63;;
27670;SDS011;15077;49.704;9.908;2022-09-09T08:29:07;1.50;;;0.47;;
27670;SDS011;15077;49.704;9.908;2022-09-09T08:31:39;1.15;;;0.40;;
27670;SDS011;15077;49.704;9.908;2022-09-09T08:34:19;3.88;;;1.08;;
27670;SDS011;15077;49.704;9.908;2022-09-09T08:36:47;2.78;;;0.88;;
27670;SDS011;15077;49.704;9.908;2022-09-09T08:39:16;1.40;;;0.70;;
27670;SDS011;15077;49.704;9.908;2022-09-09T08:53:04;3.63;;;0.77;;
27670;SDS011;15077;49.704;9.908;2022-09-09T08:55:58;1.20;;;0.60;;
27670;SDS011;15077;49.704;9.908;2022-09-09T08:58:33;2.13;;;0.55;;
27670;SDS011;15077;49.704;9.908;2022-09-09T09:04:00;4.70;;;1.10;;
27670;SDS011;15077;49.704;9.908;2022-09-09T09:12:40;4.50;;;0.98;;
27670;SDS011;15077;49.704;9.908;2022-09-09T09:15:19;3.38;;;1.25;;
27670;SDS011;15077;49.704;9.908;2022-09-09T09:17:49;3.45;;;0.77;;
27670;SDS011;15077;49.704;9.908;2022-09-09T09:20:16;3.42;;;0.98;;
27670;SDS011;15077;49.704;9.908;2022-09-09T09:22:49;2.85;;;0.50;;
27670;SDS011;15077;49.704;9.908;2022-09-09T09:25:26;2.42;;;0.50;;
27670;SDS011;15077;49.704;9.908;2022-09-09T09:28:03;2.53;;;0.70;;
27670;SDS011;15077;49.704;9.908;2022-09-09T09:31:04;2.00;;;0.70;;
27670;SDS011;15077;49.704;9.908;2022-09-09T09:36:11;2.15;;;0.65;;
27670;SDS011;15077;49.704;9.908;2022-09-09T09:38:40;4.95;;;0.75;;
27670;SDS011;15077;49.704;9.908;2022-09-09T09:41:35;3.80;;;0.75;;
27670;SDS011;15077;49.704;9.908;2022-09-09T09:44:18;2.80;;;0.85;;
27670;SDS011;15077;49.704;9.908;2022-09-09T09:47:08;2.80;;;0.77;;
27670;SDS011;15077;49.704;9.908;2022-09-09T09:52:30;2.60;;;1.25;;
27670;SDS011;15077;49.704;9.908;2022-09-09T09:54:59;2.47;;;0.60;;
27670;SDS011;15077;49.704;9.908;2022-09-09T09:57:32;5.85;;;0.70;;
27670;SDS011;15077;49.704;9.908;2022-09-09T10:00:18;1.48;;;0.70;;
27670;SDS011;15077;49.704;9.908;2022-09-09T10:02:48;4.88;;;1.30;;
27670;SDS011;15077;49.704;9.908;2022-09-09T10:07:47;2.08;;;0.80;;
27670;SDS011;15077;49.704;9.908;2022-09-09T10:17:53;3.08;;;0.80;;
27670;SDS011;15077;49.704;9.908;2022-09-09T10:23:23;3.47;;;1.25;;
27670;SDS011;15077;49.704;9.908;2022-09-09T10:26:44;3.97;;;0.63;;
27670;SDS011;15077;49.704;9.908;2022-09-09T10:37:49;0.90;;;0.43;;
27670;SDS011;15077;49.704;9.908;2022-09-09T10:55:26;1.92;;;0.40;;
27670;SDS011;15077;49.704;9.908;2022-09-09T10:58:04;0.63;;;0.20;;
27670;SDS011;15077;49.704;9.908;2022-09-09T11:00:42;2.55;;;0.20;;
27670;SDS011;15077;49.704;9.908;2022-09-09T11:03:24;1.17;;;0.28;;
27670;SDS011;15077;49.704;9.908;2022-09-09T11:06:00;0.43;;;0.20;;
27670;SDS011;15077;49.704;9.908;2022-09-09T11:08:31;1.67;;;0.30;;
27670;SDS011;15077;49.704;9.908;2022-09-09T11:11:11;0.30;;;0.20;;
27670;SDS011;15077;49.704;9.908;2022-09-09T11:13:55;1.50;;;0.40;;
27670;SDS011;15077;49.704;9.908;2022-09-09T11:22:00;1.75;;;0.40;;
27670;SDS011;15077;49.704;9.908;2022-09-09T11:33:56;1.10;;;0.40;;
27670;SDS011;15077;49.704;9.908;2022-09-09T11:44:49;0.88;;;0.30;;
27670;SDS011;15077;49.704;9.908;2022-09-09T11:47:26;2.53;;;0.43;;
27670;SDS011;15077;49.704;9.908;2022-09-09T11:52:47;2.03;;;0.32;;
27670;SDS011;15077;49.704;9.908;2022-09-09T11:55:27;2.25;;;0.50;;
27670;SDS011;15077;49.704;9.908;2022-09-09T11:58:16;2.47;;;0.30;;
27670;SDS011;15077;49.704;9.908;2022-09-09T12:00:46;2.20;;;0.68;;
27670;SDS011;15077;49.704;9.908;2022-09-09T12:06:20;2.63;;;0.60;;
27670;SDS011;15077;49.704;9.908;2022-09-09T12:09:08;1.27;;;0.40;;
27670;SDS011;15077;49.704;9.908;2022-09-09T12:11:50;1.80;;;0.40;;
27670;SDS011;15077;49.704;9.908;2022-09-09T12:14:34;1.65;;;0.60;;
27670;SDS011;15077;49.704;9.908;2022-09-09T12:17:21;1.15;;;0.28;;
27670;SDS011;15077;49.704;9.908;2022-09-09T12:25:46;0.93;;;0.40;;
27670;SDS011;15077;49.704;9.908;2022-09-09T12:33:49;1.15;;;0.30;;
27670;SDS011;15077;49.704;9.908;2022-09-09T12:36:18;0.65;;;0.30;;
27670;SDS011;15077;49.704;9.908;2022-09-09T12:38:52;0.88;;;0.30;;
27670;SDS011;15077;49.704;9.908;2022-09-09T12:41:23;0.95;;;0.22;;
27670;SDS011;15077;49.704;9.908;2022-09-09T12:44:02;0.73;;;0.40;;
27670;SDS011;15077;49.704;9.908;2022-09-09T12:46:39;2.67;;;0.55;;
27670;SDS011;15077;49.704;9.908;2022-09-09T12:55:04;2.42;;;0.47;;
27670;SDS011;15077;49.704;9.908;2022-09-09T12:57:37;1.40;;;0.30;;
27670;SDS011;15077;49.704;9.908;2022-09-09T13:00:12;0.40;;;0.28;;
27670;SDS011;15077;49.704;9.908;2022-09-09T13:02:46;1.25;;;0.47;;
27670;SDS011;15077;49.704;9.908;2022-09-09T13:05:19;0.80;;;0.30;;
27670;SDS011;15077;49.704;9.908;2022-09-09T13:07:47;1.77;;;0.40;;
27670;SDS011;15077;49.704;9.908;2022-09-09T13:10:14;1.00;;;0.30;;
27670;SDS011;15077;49.704;9.908;2022-09-09T13:12:49;1.73;;;0.47;;
27670;SDS011;15077;49.704;9.908;2022-09-09T13:15:21;0.70;;;0.32;;
27670;SDS011;15077;49.704;9.908;2022-09-09T13:17:55;0.70;;;0.30;;
27670;SDS011;15077;49.704;9.908;2022-09-09T13:20:31;2.13;;;0.52;;
27670;SDS011;15077;49.704;9.908;2022-09-09T13:22:57;1.27;;;0.30;;
27670;SDS011;15077;49.704;9.908;2022-09-09T13:25:24;0.82;;;0.35;;
27670;SDS011;15077;49.704;9.908;2022-09-09T13:27:56;0.90;;;0.35;;
27670;SDS011;15077;49.704;9.908;2022-09-09T13:30:34;0.93;;;0.30;;
27670;SDS011;15077;49.704;9.908;2022-09-09T13:38:57;2.20;;;0.38;;
27670;SDS011;15077;49.704;9.908;2022-09-09T13:44:24;0.98;;;0.20;;
27670;SDS011;15077;49.704;9.908;2022-09-09T13:47:03;0.95;;;0.30;;
27670;SDS011;15077;49.704;9.908;2022-09-09T13:49:30;0.88;;;0.30;;
27670;SDS011;15077;49.704;9.908;2022-09-09T13:52:31;1.55;;;0.40;;
27670;SDS011;15077;49.704;9.908;2022-09-09T13:54:55;3.50;;;0.40;;
27670;SDS011;15077;49.704;9.908;2022-09-09T13:57:23;0.65;;;0.22;;
27670;SDS011;15077;49.704;9.908;2022-09-09T13:59:50;1.27;;;0.40;;
27670;SDS011;15077;49.704;9.908;2022-09-09T14:02:19;0.30;;;0.30;;
27670;SDS011;15077;49.704;9.908;2022-09-09T14:04:48;0.70;;;0.20;;
27670;SDS011;15077;49.704;9.908;2022-09-09T14:07:16;0.88;;;0.38;;
27670;SDS011;15077;49.704;9.908;2022-09-09T14:09:43;1.83;;;0.35;;
27670;SDS011;15077;49.704;9.908;2022-09-09T14:12:15;0.20;;;0.20;;
27670;SDS011;15077;49.704;9.908;2022-09-09T14:14:41;2.60;;;0.40;;
27670;SDS011;15077;49.704;9.908;2022-09-09T14:17:08;1.50;;;0.40;;
27670;SDS011;15077;49.704;9.908;2022-09-09T14:19:34;0.80;;;0.20;;
27670;SDS011;15077;49.704;9.908;2022-09-09T14:22:02;1.15;;;0.50;;
27670;SDS011;15077;49.704;9.908;2022-09-09T14:24:28;1.17;;;0.30;;
27670;SDS011;15077;49.704;9.908;2022-09-09T14:26:54;0.70;;;0.28;;
27670;SDS011;15077;49.704;9.908;2022-09-09T14:29:20;2.35;;;0.40;;
27670;SDS011;15077;49.704;9.908;2022-09-09T14:31:46;0.63;;;0.20;;
27670;SDS011;15077;49.704;9.908;2022-09-09T14:34:12;0.90;;;0.30;;
27670;SDS011;15077;49.704;9.908;2022-09-09T14:36:39;1.35;;;0.55;;
27670;SDS011;15077;49.704;9.908;2022-09-09T14:39:06;3.50;;;0.38;;
27670;SDS011;15077;49.704;9.908;2022-09-09T14:41:32;1.45;;;0.40;;
27670;SDS011;15077;49.704;9.908;2022-09-09T14:43:58;2.00;;;0.45;;
27670;SDS011;15077;49.704;9.908;2022-09-09T14:46:24;2.10;;;0.47;;
27670;SDS011;15077;49.704;9.908;2022-09-09T14:48:52;0.68;;;0.30;;
27670;SDS011;15077;49.704;9.908;2022-09-09T14:51:19;1.48;;;0.47;;
27670;SDS011;15077;49.704;9.908;2022-09-09T14:53:50;3.08;;;0.40;;
27670;SDS011;15077;49.704;9.908;2022-09-09T14:56:19;1.30;;;0.32;;
27670;SDS011;15077;49.704;9.908;2022-09-09T14:58:49;1.75;;;0.30;;
27670;SDS011;15077;49.704;9.908;2022-09-09T15:01:17;1.23;;;0.52;;
27670;SDS011;15077;49.704;9.908;2022-09-09T15:03:55;0.98;;;0.40;;
27670;SDS011;15077;49.704;9.908;2022-09-09T15:06:24;1.02;;;0.20;;
27670;SDS011;15077;49.704;9.908;2022-09-09T15:08:54;1.55;;;0.38;;
27670;SDS011;15077;49.704;9.908;2022-09-09T15:11:23;1.45;;;0.28;;
27670;SDS011;15077;49.704;9.908;2022-09-09T15:13:52;1.92;;;0.40;;
27670;SDS011;15077;49.704;9.908;2022-09-09T15:16:21;1.83;;;0.40;;
27670;SDS011;15077;49.704;9.908;2022-09-09T15:18:53;0.77;;;0.38;;
27670;SDS011;15077;49.704;9.908;2022-09-09T15:21:24;1.50;;;0.50;;
27670;SDS011;15077;49.704;9.908;2022-09-09T15:23:52;1.52;;;0.40;;
27670;SDS011;15077;49.704;9.908;2022-09-09T15:26:19;0.52;;;0.30;;
27670;SDS011;15077;49.704;9.908;2022-09-09T15:28:46;0.63;;;0.40;;
27670;SDS011;15077;49.704;9.908;2022-09-09T15:31:19;0.68;;;0.20;;
27670;SDS011;15077;49.704;9.908;2022-09-09T15:36:26;2.35;;;0.30;;
27670;SDS011;15077;49.704;9.908;2022-09-09T15:39:00;1.38;;;0.20;;
27670;SDS011;15077;49.704;9.908;2022-09-09T15:41:28;0.35;;;0.20;;
27670;SDS011;15077;49.704;9.908;2022-09-09T15:43:57;0.93;;;0.38;;
27670;SDS011;15077;49.704;9.908;2022-09-09T15:46:25;1.00;;;0.30;;
27670;SDS011;15077;49.704;9.908;2022-09-09T15:49:11;0.73;;;0.20;;
27670;SDS011;15077;49.704;9.908;2022-09-09T15:51:44;0.88;;;0.40;;
27670;SDS011;15077;49.704;9.908;2022-09-09T15:54:19;0.57;;;0.20;;
27670;SDS011;15077;49.704;9.908;2022-09-09T15:56:53;1.25;;;0.30;;
27670;SDS011;15077;49.704;9.908;2022-09-09T15:59:22;1.15;;;0.57;;
27670;SDS011;15077;49.704;9.908;2022-09-09T16:01:50;0.90;;;0.30;;
27670;SDS011;15077;49.704;9.908;2022-09-09T16:04:17;1.20;;;0.20;;
27670;SDS011;15077;49.704;9.908;2022-09-09T16:06:53;0.38;;;0.20;;
27670;SDS011;15077;49.704;9.908;2022-09-09T16:09:24;1.00;;;0.20;;
27670;SDS011;15077;49.704;9.908;2022-09-09T16:11:51;0.50;;;0.20;;
27670;SDS011;15077;49.704;9.908;2022-09-09T16:14:21;1.20;;;0.25;;
27670;SDS011;15077;49.704;9.908;2022-09-09T16:16:48;0.38;;;0.35;;
27670;SDS011;15077;49.704;9.908;2022-09-09T16:19:14;1.95;;;0.35;;
27670;SDS011;15077;49.704;9.908;2022-09-09T16:21:41;1.15;;;0.30;;
27670;SDS011;15077;49.704;9.908;2022-09-09T16:24:11;0.30;;;0.20;;
27670;SDS011;15077;49.704;9.908;2022-09-09T16:26:40;1.70;;;0.40;;
27670;SDS011;15077;49.704;9.908;2022-09-09T16:29:12;1.67;;;0.30;;
27670;SDS011;15077;49.704;9.908;2022-09-09T16:31:39;0.43;;;0.20;;
27670;SDS011;15077;49.704;9.908;2022-09-09T16:34:06;0.47;;;0.32;;
27670;SDS011;15077;49.704;9.908;2022-09-09T16:36:33;0.57;;;0.30;;
27670;SDS011;15077;49.704;9.908;2022-09-09T16:39:04;1.10;;;0.35;;
27670;SDS011;15077;49.704;9.908;2022-09-09T16:41:36;0.10;;;0.10;;
27670;SDS011;15077;49.704;9.908;2022-09-09T16:44:05;0.30;;;0.20;;
27670;SDS011;15077;49.704;9.908;2022-09-09T16:46:35;0.25;;;0.10;;
27670;SDS011;15077;49.704;9.908;2022-09-09T16:49:05;0.45;;;0.20;;
27670;SDS011;15077;49.704;9.908;2022-09-09T16:51:35;0.50;;;0.20;;
27670;SDS011;15077;49.704;9.908;2022-09-09T16:54:04;0.20;;;0.10;;
27670;SDS011;15077;49.704;9.908;2022-09-09T16:56:33;0.40;;;0.20;;
27670;SDS011;15077;49.704;9.908;2022-09-09T16:59:03;1.38;;;0.30;;
27670;SDS011;15077;49.704;9.908;2022-09-09T17:01:36;0.50;;;0.30;;
27670;SDS011;15077;49.704;9.908;2022-09-09T17:04:15;0.20;;;0.20;;
27670;SDS011;15077;49.704;9.908;2022-09-09T17:06:50;1.38;;;0.30;;
27670;SDS011;15077;49.704;9.908;2022-09-09T17:09:19;1.10;;;0.38;;
27670;SDS011;15077;49.704;9.908;2022-09-09T17:11:47;1.48;;;0.28;;
27670;SDS011;15077;49.704;9.908;2022-09-09T17:14:16;0.70;;;0.30;;
27670;SDS011;15077;49.704;9.908;2022-09-09T17:16:44;0.63;;;0.32;;
27670;SDS011;15077;49.704;9.908;2022-09-09T17:19:11;0.57;;;0.30;;
27670;SDS011;15077;49.704;9.908;2022-09-09T17:21:38;1.20;;;0.28;;
27670;SDS011;15077;49.704;9.908;2022-09-09T17:24:04;1.55;;;0.30;;
27670;SDS011;15077;49.704;9.908;2022-09-09T17:26:32;0.60;;;0.30;;
27670;SDS011;15077;49.704;9.908;2022-09-09T17:28:59;1.48;;;0.22;;
27670;SDS011;15077;49.704;9.908;2022-09-09T17:31:26;1.80;;;0.43;;
27670;SDS011;15077;49.704;9.908;2022-09-09T17:33:54;0.85;;;0.30;;
27670;SDS011;15077;49.704;9.908;2022-09-09T17:38:54;1.55;;;0.40;;
27670;SDS011;15077;49.704;9.908;2022-09-09T17:41:22;1.08;;;0.40;;
27670;SDS011;15077;49.704;9.908;2022-09-09T17:43:51;2.53;;;0.77;;
27670;SDS011;15077;49.704;9.908;2022-09-09T17:46:18;1.48;;;0.50;;
27670;SDS011;15077;49.704;9.908;2022-09-09T17:48:58;0.82;;;0.30;;
27670;SDS011;15077;49.704;9.908;2022-09-09T17:51:26;0.73;;;0.35;;
27670;SDS011;15077;49.704;9.908;2022-09-09T17:53:59;0.60;;;0.20;;
27670;SDS011;15077;49.704;9.908;2022-09-09T17:56:34;0.85;;;0.40;;
27670;SDS011;15077;49.704;9.908;2022-09-09T17:59:02;0.50;;;0.20;;
27670;SDS011;15077;49.704;9.908;2022-09-09T18:01:32;1.00;;;0.20;;
27670;SDS011;15077;49.704;9.908;2022-09-09T18:04:02;1.13;;;0.22;;
27670;SDS011;15077;49.704;9.908;2022-09-09T18:06:34;2.03;;;0.45;;
27670;SDS011;15077;49.704;9.908;2022-09-09T18:09:05;0.70;;;0.20;;
27670;SDS011;15077;49.704;9.908;2022-09-09T18:11:36;0.55;;;0.17;;
27670;SDS011;15077;49.704;9.908;2022-09-09T18:14:07;2.03;;;0.32;;
27670;SDS011;15077;49.704;9.908;2022-09-09T18:16:36;0.70;;;0.30;;
27670;SDS011;15077;49.704;9.908;2022-09-09T18:19:05;0.40;;;0.20;;
27670;SDS011;15077;49.704;9.908;2022-09-09T18:21:36;0.17;;;0.15;;
27670;SDS011;15077;49.704;9.908;2022-09-09T18:24:03;1.50;;;0.30;;
27670;SDS011;15077;49.704;9.908;2022-09-09T18:26:31;0.75;;;0.20;;
27670;SDS011;15077;49.704;9.908;2022-09-09T18:29:00;0.68;;;0.32;;
27670;SDS011;15077;49.704;9.908;2022-09-09T18:33:59;1.48;;;0.20;;
27670;SDS011;15077;49.704;9.908;2022-09-09T18:36:31;0.73;;;0.20;;
27670;SDS011;15077;49.704;9.908;2022-09-09T18:39:04;0.40;;;0.28;;
27670;SDS011;15077;49.704;9.908;2022-09-09T18:41:33;0.52;;;0.17;;
27670;SDS011;15077;49.704;9.908;2022-09-09T18:44:06;0.73;;;0.20;;